createdAt,value
2023-07-31T00:02:12.299Z,92.41
2023-07-31T00:04:40.220Z,92.26
2023-07-31T00:07:09.560Z,92.24
2023-07-31T00:09:37.562Z,92.10
2023-07-31T00:12:06.329Z,92.24
2023-07-31T00:14:34.265Z,92.51
2023-07-31T00:17:02.111Z,93.17
2023-07-31T00:19:30.050Z,93.01
2023-07-31T00:21:57.925Z,92.75
2023-07-31T00:24:27.412Z,92.61
2023-07-31T00:26:55.491Z,92.72
2023-07-31T00:29:23.383Z,92.00
2023-07-31T00:31:51.394Z,91.86
2023-07-31T00:34:19.446Z,91.91
2023-07-31T00:36:47.362Z,90.82
2023-07-31T00:39:15.251Z,90.67
2023-07-31T00:41:44.556Z,90.08
2023-07-31T00:44:12.453Z,89.97
2023-07-31T00:46:40.832Z,89.74
2023-07-31T00:49:09.829Z,89.58
2023-07-31T00:51:37.800Z,88.81
2023-07-31T00:54:06.352Z,88.63
2023-07-31T00:56:35.040Z,88.62
2023-07-31T00:59:04.373Z,88.31
2023-07-31T01:01:32.324Z,88.48
2023-07-31T01:04:00.500Z,87.68
2023-07-31T01:06:38.980Z,87.55
2023-07-31T01:09:14.365Z,87.53
2023-07-31T01:11:49.595Z,87.67
2023-07-31T01:14:18.937Z,86.90
2023-07-31T01:16:46.909Z,86.82
2023-07-31T01:19:17.271Z,87.30
2023-07-31T01:22:01.489Z,87.10
2023-07-31T01:24:38.191Z,86.60
2023-07-31T01:27:11.837Z,86.75
2023-07-31T01:29:45.405Z,87.21
2023-07-31T01:32:15.192Z,86.67
2023-07-31T01:34:44.645Z,87.75
2023-07-31T01:37:12.825Z,87.87
2023-07-31T01:39:40.860Z,87.54
2023-07-31T01:42:10.384Z,88.05
2023-07-31T01:44:38.299Z,88.49
2023-07-31T01:47:06.904Z,88.26
2023-07-31T01:49:34.811Z,87.93
2023-07-31T01:52:02.784Z,87.99
2023-07-31T01:54:30.942Z,87.98
2023-07-31T01:56:58.880Z,87.91
2023-07-31T01:59:28.244Z,88.34
2023-07-31T02:01:56.300Z,88.87
2023-07-31T02:04:24.393Z,88.63
2023-07-31T02:06:52.257Z,88.54
2023-07-31T02:09:20.214Z,88.45
2023-07-31T02:11:48.197Z,87.77
2023-07-31T02:14:16.197Z,87.36
2023-07-31T02:16:45.519Z,87.58
2023-07-31T02:19:13.484Z,87.33
2023-07-31T02:21:41.411Z,87.17
2023-07-31T02:24:09.464Z,87.23
2023-07-31T02:26:37.711Z,86.82
2023-07-31T02:29:05.782Z,86.74
2023-07-31T02:31:33.948Z,86.12
2023-07-31T02:34:03.272Z,87.15
2023-07-31T02:36:31.191Z,87.01
2023-07-31T02:38:59.156Z,86.06
2023-07-31T02:41:27.064Z,86.40
2023-07-31T02:43:55.042Z,85.96
2023-07-31T02:46:25.641Z,86.84
2023-07-31T02:48:53.762Z,86.72
2023-07-31T02:51:23.315Z,86.86
2023-07-31T02:53:51.695Z,87.97
2023-07-31T02:56:19.852Z,87.83
2023-07-31T02:58:47.820Z,87.95
2023-07-31T03:01:15.800Z,88.74
2023-07-31T03:03:44.296Z,89.66
2023-07-31T03:06:12.302Z,90.09
2023-07-31T03:08:41.677Z,89.83
2023-07-31T03:11:09.684Z,88.81
2023-07-31T03:13:37.541Z,89.58
2023-07-31T03:16:06.029Z,89.47
2023-07-31T03:18:33.942Z,89.04
2023-07-31T03:21:01.882Z,88.90
2023-07-31T03:23:29.854Z,88.74
2023-07-31T03:25:59.919Z,88.97
2023-07-31T03:28:27.935Z,88.92
2023-07-31T03:30:55.923Z,88.47
2023-07-31T03:33:23.984Z,88.73
2023-07-31T03:35:51.950Z,89.16
2023-07-31T03:38:20.329Z,88.74
2023-07-31T03:40:48.275Z,88.87
2023-07-31T03:43:18.071Z,89.51
2023-07-31T03:45:46.079Z,89.37
2023-07-31T03:48:16.410Z,89.05
2023-07-31T03:50:44.469Z,88.47
2023-07-31T03:53:13.072Z,89.34
2023-07-31T03:55:40.934Z,88.64
2023-07-31T03:58:08.766Z,89.05
2023-07-31T04:00:38.211Z,88.37
2023-07-31T04:03:06.277Z,88.70
2023-07-31T04:05:34.976Z,88.21
2023-07-31T04:08:03.019Z,87.67
2023-07-31T04:10:32.403Z,88.18
2023-07-31T04:13:00.290Z,88.38
2023-07-31T04:15:28.222Z,89.21
2023-07-31T04:17:57.666Z,89.47
2023-07-31T04:20:25.687Z,88.76
2023-07-31T04:22:53.651Z,88.42
2023-07-31T04:25:21.540Z,89.92
2023-07-31T04:27:49.471Z,89.92
2023-07-31T04:30:17.586Z,90.35
2023-07-31T04:32:45.500Z,91.05
2023-07-31T04:35:14.741Z,90.90
2023-07-31T04:37:42.764Z,91.89
2023-07-31T04:40:11.292Z,91.62
2023-07-31T04:42:39.191Z,91.66
2023-07-31T04:45:08.094Z,91.63
2023-07-31T04:47:36.002Z,92.64
2023-07-31T04:50:03.945Z,91.87
2023-07-31T04:52:33.257Z,92.46
2023-07-31T04:55:01.128Z,92.00
2023-07-31T04:57:29.044Z,92.04
2023-07-31T04:59:56.956Z,92.22
2023-07-31T05:02:25.804Z,91.44
2023-07-31T05:04:53.783Z,90.95
2023-07-31T05:07:21.828Z,91.92
2023-07-31T05:09:51.052Z,91.75
2023-07-31T05:12:18.933Z,92.23
2023-07-31T05:14:46.914Z,91.14
2023-07-31T05:17:14.780Z,92.84
2023-07-31T05:19:43.061Z,92.90
2023-07-31T05:22:11.048Z,92.78
2023-07-31T05:24:38.917Z,93.02
2023-07-31T05:27:09.142Z,93.82
2023-07-31T05:29:37.140Z,94.40
2023-07-31T05:32:05.726Z,94.68
2023-07-31T05:34:33.606Z,94.17
2023-07-31T05:37:01.500Z,94.25
2023-07-31T05:39:29.546Z,94.27
2023-07-31T05:41:57.391Z,94.29
2023-07-31T05:44:26.745Z,95.50
2023-07-31T05:46:54.785Z,94.59
2023-07-31T05:49:22.683Z,94.51
2023-07-31T05:51:50.596Z,94.22
2023-07-31T05:54:18.544Z,94.15
2023-07-31T05:56:46.420Z,94.87
2023-07-31T05:59:15.415Z,95.57
2023-07-31T06:01:44.986Z,95.46
2023-07-31T06:04:13.042Z,95.99
2023-07-31T06:06:41.505Z,95.56
2023-07-31T06:09:09.618Z,95.15
2023-07-31T06:11:37.742Z,94.90
2023-07-31T06:14:05.685Z,94.76
2023-07-31T06:16:33.648Z,93.83
2023-07-31T06:19:03.090Z,93.95
2023-07-31T06:21:31.113Z,94.30
2023-07-31T06:23:59.017Z,93.09
2023-07-31T06:26:26.954Z,92.91
2023-07-31T06:28:54.924Z,94.74
2023-07-31T06:31:24.291Z,93.98
2023-07-31T06:33:53.194Z,93.47
2023-07-31T06:36:22.581Z,93.32
2023-07-31T06:38:50.426Z,93.74
2023-07-31T06:41:18.266Z,93.75
2023-07-31T06:43:46.282Z,93.33
2023-07-31T06:46:14.669Z,93.37
2023-07-31T06:48:42.653Z,93.18
2023-07-31T06:51:10.624Z,93.28
2023-07-31T06:53:39.864Z,94.02
2023-07-31T06:56:07.723Z,93.65
2023-07-31T06:58:35.673Z,93.05
2023-07-31T07:01:03.673Z,92.76
2023-07-31T07:03:31.673Z,92.95
2023-07-31T07:05:59.673Z,91.96
2023-07-31T07:08:27.726Z,92.65
2023-07-31T07:10:57.033Z,91.55
2023-07-31T07:13:24.993Z,91.11
2023-07-31T07:15:53.591Z,92.38
2023-07-31T07:18:22.040Z,93.19
2023-07-31T07:20:52.892Z,93.75
2023-07-31T07:23:21.681Z,94.21
2023-07-31T07:25:49.832Z,94.48
2023-07-31T07:28:19.182Z,93.58
2023-07-31T07:30:47.114Z,94.16
2023-07-31T07:33:15.181Z,95.18
2023-07-31T07:35:43.139Z,95.66
2023-07-31T07:38:11.004Z,95.75
2023-07-31T07:40:41.213Z,95.41
2023-07-31T07:43:09.486Z,95.19
2023-07-31T07:45:38.718Z,95.16
2023-07-31T07:48:06.855Z,95.47
2023-07-31T07:50:34.849Z,94.74
2023-07-31T07:53:02.782Z,95.11
2023-07-31T07:55:30.757Z,93.98
2023-07-31T07:57:58.661Z,94.92
2023-07-31T08:00:26.557Z,94.30
2023-07-31T08:02:55.973Z,94.78
2023-07-31T08:05:24.039Z,94.85
2023-07-31T08:07:51.971Z,93.88
2023-07-31T08:10:20.008Z,93.60
2023-07-31T08:12:47.926Z,93.33
2023-07-31T08:15:15.914Z,92.49
2023-07-31T08:17:43.882Z,92.57
2023-07-31T08:20:15.418Z,91.95
2023-07-31T08:22:43.359Z,91.59
2023-07-31T08:25:11.340Z,90.18
2023-07-31T08:27:39.302Z,90.45
2023-07-31T08:30:08.551Z,90.35
2023-07-31T08:32:36.467Z,90.23
2023-07-31T08:35:04.807Z,88.94
2023-07-31T08:37:34.052Z,88.05
2023-07-31T08:40:02.140Z,87.00
2023-07-31T08:42:31.902Z,87.95
2023-07-31T08:45:01.705Z,87.24
2023-07-31T08:47:30.462Z,86.78
2023-07-31T08:49:59.728Z,87.25
2023-07-31T08:52:27.779Z,86.62
2023-07-31T08:54:57.088Z,86.52
2023-07-31T08:57:25.579Z,86.69
2023-07-31T08:59:54.719Z,86.02
2023-07-31T09:02:24.087Z,87.07
2023-07-31T09:04:52.098Z,86.60
2023-07-31T09:07:20.560Z,86.52
2023-07-31T09:09:48.629Z,86.37
2023-07-31T09:12:18.455Z,84.21
2023-07-31T09:14:48.863Z,84.83
2023-07-31T09:17:16.800Z,84.46
2023-07-31T09:19:44.731Z,85.10
2023-07-31T09:22:12.726Z,85.92
2023-07-31T09:24:40.608Z,85.51
2023-07-31T09:27:08.765Z,85.69
2023-07-31T09:29:38.034Z,85.49
2023-07-31T09:32:06.440Z,86.14
2023-07-31T09:34:40.195Z,85.97
2023-07-31T09:37:08.158Z,85.57
2023-07-31T09:39:48.470Z,86.67
2023-07-31T09:42:16.452Z,85.28
2023-07-31T09:44:45.698Z,85.45
2023-07-31T09:47:26.216Z,84.07
2023-07-31T09:49:54.548Z,84.77
2023-07-31T09:52:22.481Z,84.11
2023-07-31T09:54:50.595Z,83.71
2023-07-31T09:57:20.624Z,83.66
2023-07-31T09:59:51.241Z,84.73
2023-07-31T10:02:23.955Z,84.54
2023-07-31T10:04:53.080Z,84.70
2023-07-31T10:07:25.525Z,83.54
2023-07-31T10:09:54.732Z,83.88
2023-07-31T10:12:27.789Z,84.34
2023-07-31T10:14:57.821Z,84.40
2023-07-31T10:17:26.995Z,83.67
2023-07-31T10:19:55.640Z,83.37
2023-07-31T10:22:23.604Z,83.65
2023-07-31T10:24:54.061Z,84.38
2023-07-31T10:27:21.943Z,85.29
2023-07-31T10:29:50.828Z,85.83
2023-07-31T10:32:21.804Z,85.93
2023-07-31T10:34:51.471Z,85.44
2023-07-31T10:37:26.919Z,86.61
2023-07-31T10:39:59.464Z,86.27
2023-07-31T10:42:31.553Z,85.64
2023-07-31T10:45:01.446Z,85.32
2023-07-31T10:47:30.794Z,85.83
2023-07-31T10:50:21.042Z,85.91
2023-07-31T10:52:50.484Z,85.36
2023-07-31T10:55:27.471Z,85.71
2023-07-31T10:57:56.203Z,88.54
2023-07-31T11:00:27.240Z,90.31
2023-07-31T11:03:04.843Z,90.74
2023-07-31T11:06:04.451Z,89.85
2023-07-31T11:08:34.295Z,90.84
2023-07-31T11:11:09.933Z,90.28
2023-07-31T11:13:43.234Z,90.87
2023-07-31T11:16:11.229Z,91.11
2023-07-31T11:18:42.845Z,89.90
2023-07-31T11:21:13.882Z,89.14
2023-07-31T11:23:41.855Z,88.49
2023-07-31T11:26:10.236Z,88.39
2023-07-31T11:28:38.400Z,89.57
2023-07-31T11:31:07.087Z,90.08
2023-07-31T11:33:34.981Z,90.74
2023-07-31T11:36:04.392Z,91.05
2023-07-31T11:38:33.987Z,91.44
2023-07-31T11:41:03.963Z,92.48
2023-07-31T11:43:33.383Z,92.98
2023-07-31T11:46:04.369Z,91.50
2023-07-31T11:48:35.673Z,92.73
2023-07-31T11:51:07.053Z,93.21
2023-07-31T11:53:40.378Z,93.72
2023-07-31T11:56:09.831Z,93.09
2023-07-31T11:58:38.892Z,92.97
2023-07-31T12:01:07.660Z,94.40
2023-07-31T12:03:36.757Z,94.45
2023-07-31T12:06:05.993Z,94.09
2023-07-31T12:08:33.979Z,94.85
2023-07-31T12:11:06.249Z,95.62
2023-07-31T12:13:36.652Z,94.24
2023-07-31T12:16:06.410Z,93.90
2023-07-31T12:18:36.757Z,93.85
2023-07-31T12:21:07.576Z,92.14
2023-07-31T12:23:37.327Z,92.00
2023-07-31T12:26:06.402Z,91.20
2023-07-31T12:28:38.127Z,92.15
2023-07-31T12:31:06.925Z,92.33
2023-07-31T12:33:36.110Z,92.38
2023-07-31T12:36:08.804Z,91.90
2023-07-31T12:38:37.014Z,91.63
2023-07-31T12:41:05.115Z,90.52
2023-07-31T12:43:33.266Z,91.05
2023-07-31T12:46:01.532Z,90.63
2023-07-31T12:48:29.430Z,90.75
2023-07-31T12:50:57.299Z,92.03
2023-07-31T12:53:26.630Z,92.11
2023-07-31T12:55:54.662Z,92.07
2023-07-31T12:58:22.627Z,92.88
2023-07-31T13:00:50.481Z,92.95
2023-07-31T13:03:18.389Z,92.36
2023-07-31T13:05:46.512Z,92.21
2023-07-31T13:08:16.700Z,93.99
2023-07-31T13:10:46.060Z,93.32
2023-07-31T13:13:14.059Z,93.59
2023-07-31T13:15:42.008Z,93.83
2023-07-31T13:18:09.925Z,93.51
2023-07-31T13:20:37.892Z,92.90
2023-07-31T13:23:05.770Z,94.35
2023-07-31T13:25:33.948Z,94.11
2023-07-31T13:28:04.166Z,94.44
2023-07-31T13:30:32.330Z,95.09
2023-07-31T13:33:00.223Z,95.78
2023-07-31T13:35:28.135Z,94.87
2023-07-31T13:37:55.993Z,94.93
2023-07-31T13:40:24.274Z,95.23
2023-07-31T13:42:52.200Z,94.99
2023-07-31T13:45:21.565Z,96.09
2023-07-31T13:47:49.510Z,96.23
2023-07-31T13:50:17.994Z,96.42
2023-07-31T13:52:45.938Z,95.53
2023-07-31T13:55:14.031Z,95.85
2023-07-31T13:57:41.966Z,96.33
2023-07-31T14:00:10.814Z,97.74
2023-07-31T14:02:40.225Z,98.48
2023-07-31T14:05:10.690Z,98.69
2023-07-31T14:07:38.681Z,99.06
2023-07-31T14:10:07.236Z,98.66
2023-07-31T14:12:42.531Z,98.90
2023-07-31T14:15:11.745Z,98.37
2023-07-31T14:17:41.501Z,98.30
2023-07-31T14:20:11.331Z,97.86
2023-07-31T14:22:39.442Z,98.02
2023-07-31T14:25:07.998Z,97.75
2023-07-31T14:27:35.910Z,98.24
2023-07-31T14:30:04.047Z,99.16
2023-07-31T14:32:31.957Z,99.67
2023-07-31T14:35:01.218Z,100.00
2023-07-31T14:37:38.388Z,100.00
2023-07-31T14:40:07.591Z,100.00
2023-07-31T14:42:35.818Z,100.00
2023-07-31T14:45:03.965Z,100.00
2023-07-31T14:47:33.220Z,100.00
2023-07-31T14:50:03.187Z,100.00
2023-07-31T14:52:31.490Z,100.00
2023-07-31T14:54:59.409Z,100.00
2023-07-31T14:57:27.683Z,100.00
2023-07-31T14:59:55.983Z,100.00
2023-07-31T15:02:23.973Z,100.00
2023-07-31T15:04:51.924Z,100.00
2023-07-31T15:07:21.242Z,100.00
2023-07-31T15:09:49.153Z,100.00
2023-07-31T15:12:17.027Z,100.00
2023-07-31T15:14:45.017Z,100.00
2023-07-31T15:17:12.974Z,100.00
2023-07-31T15:19:40.801Z,100.00
2023-07-31T15:22:09.022Z,100.00
2023-07-31T15:24:39.568Z,100.00
2023-07-31T15:27:09.605Z,100.00
2023-07-31T15:29:38.448Z,100.00
2023-07-31T15:32:07.579Z,100.00
2023-07-31T15:34:35.649Z,100.00
2023-07-31T15:37:04.953Z,100.00
2023-07-31T15:39:33.162Z,100.00
2023-07-31T15:42:02.481Z,100.00
2023-07-31T15:44:30.364Z,100.00
2023-07-31T15:46:58.465Z,100.00
2023-07-31T15:49:26.383Z,100.00
2023-07-31T15:51:54.345Z,100.00
2023-07-31T15:54:22.203Z,100.00
2023-07-31T15:56:50.219Z,100.00
2023-07-31T15:59:19.455Z,100.00
2023-07-31T16:01:47.476Z,100.00
2023-07-31T16:04:17.016Z,100.00
2023-07-31T16:06:44.981Z,100.00
2023-07-31T16:09:13.004Z,100.00
2023-07-31T16:11:41.178Z,100.00
2023-07-31T16:14:10.840Z,100.00
2023-07-31T16:16:40.487Z,100.00
2023-07-31T16:19:08.838Z,100.00
2023-07-31T16:21:38.092Z,100.00
2023-07-31T16:24:06.595Z,100.00
2023-07-31T16:26:35.264Z,100.00
2023-07-31T16:29:03.266Z,100.00
2023-07-31T16:31:40.064Z,100.00
2023-07-31T16:34:16.654Z,100.00
2023-07-31T16:36:44.558Z,100.00
2023-07-31T16:39:12.411Z,100.00
2023-07-31T16:41:40.569Z,100.00
2023-07-31T16:44:08.782Z,100.00
2023-07-31T16:46:36.646Z,100.00
2023-07-31T16:49:05.115Z,100.00
2023-07-31T16:51:34.826Z,100.00
2023-07-31T16:54:02.746Z,100.00
2023-07-31T16:56:32.915Z,100.00
2023-07-31T16:59:04.578Z,100.00
2023-07-31T17:01:33.607Z,100.00
2023-07-31T17:04:02.239Z,100.00
2023-07-31T17:06:30.617Z,100.00
2023-07-31T17:08:59.911Z,100.00
2023-07-31T17:11:27.784Z,100.00
2023-07-31T17:13:55.601Z,100.00
2023-07-31T17:16:24.066Z,100.00
2023-07-31T17:18:51.911Z,100.00
2023-07-31T17:21:19.799Z,100.00
2023-07-31T17:23:47.721Z,100.00
2023-07-31T17:26:16.925Z,100.00
2023-07-31T17:28:44.782Z,100.00
2023-07-31T17:31:13.888Z,100.00
2023-07-31T17:33:42.003Z,100.00
2023-07-31T17:36:10.103Z,100.00
2023-07-31T17:38:38.020Z,100.00
2023-07-31T17:41:05.945Z,100.00
2023-07-31T17:43:35.198Z,100.00
2023-07-31T17:46:04.668Z,100.00
2023-07-31T17:48:33.537Z,100.00
2023-07-31T17:51:02.575Z,100.00
2023-07-31T17:53:30.422Z,100.00
2023-07-31T17:55:58.258Z,100.00
2023-07-31T17:58:26.232Z,100.00
2023-07-31T18:00:55.961Z,100.00
2023-07-31T18:03:24.023Z,100.00
2023-07-31T18:05:52.033Z,100.00
2023-07-31T18:08:20.117Z,100.00
2023-07-31T18:10:48.741Z,100.00
2023-07-31T18:13:17.650Z,100.00
2023-07-31T18:15:46.496Z,100.00
2023-07-31T18:18:16.364Z,100.00
2023-07-31T18:20:44.243Z,100.00
2023-07-31T18:23:12.255Z,100.00
2023-07-31T18:25:42.518Z,100.00
2023-07-31T18:28:10.591Z,100.00
2023-07-31T18:30:38.524Z,100.00
2023-07-31T18:33:06.545Z,100.00
2023-07-31T18:35:40.012Z,100.00
2023-07-31T18:38:07.916Z,100.00
2023-07-31T18:40:35.815Z,100.00
2023-07-31T18:43:05.111Z,100.00
2023-07-31T18:45:34.207Z,100.00
2023-07-31T18:48:02.264Z,100.00
2023-07-31T18:50:30.172Z,100.00
2023-07-31T18:52:59.475Z,100.00
2023-07-31T18:55:27.522Z,100.00
2023-07-31T18:57:55.516Z,100.00
2023-07-31T19:00:23.494Z,100.00
2023-07-31T19:02:51.522Z,100.00
2023-07-31T19:05:19.640Z,100.00
2023-07-31T19:07:47.423Z,100.00
2023-07-31T19:10:17.629Z,100.00
2023-07-31T19:12:45.805Z,100.00
2023-07-31T19:15:13.702Z,100.00
2023-07-31T19:17:43.693Z,100.00
2023-07-31T19:20:12.322Z,100.00
2023-07-31T19:22:40.222Z,100.00
2023-07-31T19:25:08.926Z,100.00
2023-07-31T19:27:38.158Z,100.00
2023-07-31T19:30:06.820Z,100.00
2023-07-31T19:32:34.892Z,100.00
2023-07-31T19:35:03.106Z,100.00
2023-07-31T19:37:31.745Z,100.00
2023-07-31T19:39:59.636Z,100.00
2023-07-31T19:42:27.459Z,100.00
2023-07-31T19:44:56.692Z,100.00
2023-07-31T19:47:24.689Z,100.00
2023-07-31T19:49:52.599Z,100.00
2023-07-31T19:52:20.449Z,100.00
2023-07-31T19:54:48.293Z,100.00
2023-07-31T19:57:16.139Z,100.00
2023-07-31T19:59:44.708Z,100.00
2023-07-31T20:02:14.085Z,100.00
2023-07-31T20:04:41.960Z,100.00
2023-07-31T20:07:09.807Z,100.00
2023-07-31T20:09:37.749Z,100.00
2023-07-31T20:12:06.416Z,100.00
2023-07-31T20:14:34.735Z,100.00
2023-07-31T20:17:02.608Z,100.00
2023-07-31T20:19:32.157Z,100.00
2023-07-31T20:22:00.077Z,100.00
2023-07-31T20:24:27.981Z,100.00
2023-07-31T20:26:55.803Z,100.00
2023-07-31T20:29:23.646Z,100.00
2023-07-31T20:31:51.637Z,100.00
2023-07-31T20:34:19.512Z,100.00
2023-07-31T20:36:48.693Z,100.00
2023-07-31T20:39:16.586Z,100.00
2023-07-31T20:41:44.621Z,100.00
2023-07-31T20:44:12.470Z,100.00
2023-07-31T20:46:40.736Z,100.00
2023-07-31T20:49:08.998Z,100.00
2023-07-31T20:51:38.925Z,100.00
2023-07-31T20:54:08.345Z,100.00
2023-07-31T20:56:36.225Z,100.00
2023-07-31T20:59:04.135Z,100.00
2023-07-31T21:01:32.082Z,100.00
2023-07-31T21:04:00.040Z,100.00
2023-07-31T21:06:28.003Z,100.00
2023-07-31T21:08:55.935Z,100.00
2023-07-31T21:11:25.173Z,100.00
2023-07-31T21:13:53.003Z,100.00
2023-07-31T21:16:21.409Z,100.00
2023-07-31T21:18:49.339Z,100.00
2023-07-31T21:21:17.210Z,100.00
2023-07-31T21:23:45.117Z,100.00
2023-07-31T21:26:13.081Z,100.00
2023-07-31T21:28:42.333Z,100.00
2023-07-31T21:31:13.950Z,100.00
2023-07-31T21:33:42.142Z,100.00
2023-07-31T21:36:10.036Z,100.00
2023-07-31T21:38:37.956Z,100.00
2023-07-31T21:41:05.868Z,100.00
2023-07-31T21:43:33.712Z,100.00
2023-07-31T21:46:03.018Z,100.00
2023-07-31T21:48:30.880Z,100.00
2023-07-31T21:50:58.926Z,100.00
2023-07-31T21:53:26.810Z,100.00
2023-07-31T21:55:54.647Z,100.00
2023-07-31T21:58:22.468Z,100.00
2023-07-31T22:00:50.417Z,100.00
2023-07-31T22:03:19.682Z,100.00
2023-07-31T22:05:47.601Z,100.00
2023-07-31T22:08:15.488Z,100.00
2023-07-31T22:10:43.348Z,100.00
2023-07-31T22:13:11.218Z,100.00
2023-07-31T22:15:39.128Z,100.00
2023-07-31T22:18:07.048Z,100.00
2023-07-31T22:20:36.306Z,100.00
2023-07-31T22:23:04.201Z,100.00
2023-07-31T22:25:32.082Z,100.00
2023-07-31T22:28:10.911Z,100.00
2023-07-31T22:30:47.161Z,100.00
2023-07-31T22:33:15.003Z,100.00
2023-07-31T22:35:44.372Z,100.00
2023-07-31T22:38:12.288Z,100.00
2023-07-31T22:40:40.095Z,100.00
2023-07-31T22:43:07.972Z,100.00
2023-07-31T22:45:35.857Z,100.00
2023-07-31T22:48:03.756Z,100.00
2023-07-31T22:50:31.608Z,100.00
2023-07-31T22:53:01.022Z,100.00
2023-07-31T22:55:28.953Z,100.00
2023-07-31T22:57:56.805Z,100.00
2023-07-31T23:00:24.775Z,100.00
2023-07-31T23:02:52.621Z,100.00
2023-07-31T23:05:20.722Z,100.00
2023-07-31T23:07:48.696Z,100.00
2023-07-31T23:10:18.128Z,100.00
2023-07-31T23:12:46.035Z,100.00
2023-07-31T23:15:14.225Z,100.00
2023-07-31T23:17:42.153Z,100.00
2023-07-31T23:20:11.262Z,100.00
2023-07-31T23:22:39.226Z,100.00
2023-07-31T23:25:07.961Z,100.00
2023-07-31T23:27:37.233Z,100.00
2023-07-31T23:30:06.080Z,100.00
2023-07-31T23:32:34.076Z,100.00
2023-07-31T23:35:02.073Z,100.00
2023-07-31T23:37:30.102Z,100.00
2023-07-31T23:39:57.967Z,100.00
2023-07-31T23:42:26.485Z,100.00
2023-07-31T23:45:08.843Z,100.00
2023-07-31T23:47:38.718Z,100.00
2023-07-31T23:50:08.007Z,100.00
2023-07-31T23:52:36.692Z,100.00
2023-07-31T23:55:04.724Z,100.00
2023-07-31T23:57:32.700Z,100.00
